createdAt,value
2018-08-24T00:00:31.324Z,6.78
2018-08-24T00:03:00.726Z,9.00
2018-08-24T00:05:30.233Z,6.10
2018-08-24T00:07:59.633Z,7.20
2018-08-24T00:10:28.868Z,7.05
2018-08-24T00:12:58.336Z,7.00
2018-08-24T00:15:27.635Z,7.80
2018-08-24T00:17:57.036Z,8.18
2018-08-24T00:20:26.440Z,7.60
2018-08-24T00:22:55.735Z,7.62
2018-08-24T00:25:25.038Z,9.03
2018-08-24T00:27:54.264Z,7.90
2018-08-24T00:30:23.638Z,7.67
2018-08-24T00:32:53.142Z,7.15
2018-08-24T00:35:22.440Z,7.60
2018-08-24T00:37:52.049Z,7.55
2018-08-24T00:40:21.454Z,7.40
2018-08-24T00:42:50.909Z,6.70
2018-08-24T00:45:20.135Z,6.85
2018-08-24T00:47:49.404Z,6.85
2018-08-24T00:50:18.606Z,7.08
2018-08-24T00:52:48.058Z,6.87
2018-08-24T00:55:17.391Z,7.00
2018-08-24T00:57:46.859Z,9.60
2018-08-24T01:00:16.363Z,8.50
2018-08-24T01:02:45.944Z,6.87
2018-08-24T01:05:15.370Z,6.90
2018-08-24T01:07:49.949Z,7.58
2018-08-24T01:10:24.619Z,7.40
2018-08-24T01:12:54.533Z,9.30
2018-08-24T01:15:23.832Z,7.53
2018-08-24T01:17:58.356Z,8.13
2018-08-24T01:20:30.726Z,8.78
2018-08-24T01:23:00.334Z,8.07
2018-08-24T01:25:29.635Z,9.53
2018-08-24T01:27:58.928Z,8.47
2018-08-24T01:30:28.241Z,10.90
2018-08-24T01:32:57.635Z,9.40
2018-08-24T01:35:26.932Z,9.17
2018-08-24T01:37:56.231Z,9.37
2018-08-24T01:40:25.636Z,11.23
2018-08-24T01:42:54.930Z,10.90
2018-08-24T01:45:24.336Z,11.27
2018-08-24T01:47:53.637Z,13.67
2018-08-24T01:50:23.039Z,13.13
2018-08-24T01:52:52.447Z,14.67
2018-08-24T01:55:21.741Z,13.23
2018-08-24T01:57:51.143Z,14.27
2018-08-24T02:00:20.647Z,14.93
2018-08-24T02:02:50.049Z,14.67
2018-08-24T02:05:19.554Z,14.67
2018-08-24T02:07:49.160Z,14.17
2018-08-24T02:10:23.688Z,13.77
2018-08-24T02:12:58.511Z,15.17
2018-08-24T02:15:27.913Z,14.13
2018-08-24T02:18:02.540Z,13.27
2018-08-24T02:20:36.958Z,13.07
2018-08-24T02:23:11.899Z,13.23
2018-08-24T02:25:41.422Z,12.73
2018-08-24T02:28:10.799Z,14.37
2018-08-24T02:30:40.267Z,14.13
2018-08-24T02:33:09.708Z,12.77
2018-08-24T02:35:39.018Z,12.20
2018-08-24T02:38:08.337Z,11.87
2018-08-24T02:40:37.707Z,13.97
2018-08-24T02:43:07.105Z,12.37
2018-08-24T02:45:36.518Z,12.13
2018-08-24T02:48:05.911Z,14.87
2018-08-24T02:50:35.314Z,12.40
2018-08-24T02:53:04.817Z,14.10
2018-08-24T02:55:34.325Z,13.50
2018-08-24T02:58:03.826Z,14.10
2018-08-24T03:00:33.136Z,12.77
2018-08-24T03:03:02.529Z,12.37
2018-08-24T03:05:31.880Z,13.00
2018-08-24T03:08:01.056Z,13.27
2018-08-24T03:10:30.539Z,12.70
2018-08-24T03:12:59.742Z,12.20
2018-08-24T03:15:28.967Z,12.90
2018-08-24T03:17:58.325Z,13.30
2018-08-24T03:20:27.729Z,13.73
2018-08-24T03:22:56.938Z,12.77
2018-08-24T03:25:26.334Z,15.77
2018-08-24T03:27:55.584Z,12.20
2018-08-24T03:30:26.850Z,11.50
2018-08-24T03:32:56.173Z,11.53
2018-08-24T03:35:25.473Z,12.23
2018-08-24T03:37:54.750Z,12.83
2018-08-24T03:40:24.172Z,11.87
2018-08-24T03:42:53.573Z,13.63
2018-08-24T03:45:22.908Z,11.83
2018-08-24T03:47:52.277Z,12.40
2018-08-24T03:50:21.888Z,11.87
2018-08-24T03:52:51.408Z,11.77
2018-08-24T03:55:20.749Z,11.97
2018-08-24T03:57:50.090Z,12.20
2018-08-24T04:00:20.333Z,11.27
2018-08-24T04:02:49.898Z,13.30
2018-08-24T04:05:19.219Z,11.70
2018-08-24T04:07:48.618Z,12.55
2018-08-24T04:10:18.019Z,11.47
2018-08-24T04:12:47.602Z,13.20
2018-08-24T04:15:16.927Z,10.73
2018-08-24T04:17:46.328Z,11.70
2018-08-24T04:20:15.731Z,11.18
2018-08-24T04:22:45.235Z,10.40
2018-08-24T04:25:14.638Z,12.13
2018-08-24T04:27:44.040Z,9.83
2018-08-24T04:30:13.441Z,10.23
2018-08-24T04:32:42.989Z,9.40
2018-08-24T04:35:12.347Z,9.50
2018-08-24T04:37:41.828Z,10.03
2018-08-24T04:40:11.156Z,10.75
2018-08-24T04:42:40.555Z,9.33
2018-08-24T04:45:09.956Z,9.80
2018-08-24T04:47:39.460Z,8.43
2018-08-24T04:50:08.911Z,9.97
2018-08-24T04:52:38.264Z,9.00
2018-08-24T04:55:07.666Z,8.43
2018-08-24T04:57:37.068Z,10.20
2018-08-24T05:00:08.754Z,7.80
2018-08-24T05:02:38.411Z,8.83
2018-08-24T05:05:10.298Z,9.20
2018-08-24T05:07:39.697Z,7.83
2018-08-24T05:10:09.198Z,9.20
2018-08-24T05:12:38.415Z,7.10
2018-08-24T05:15:08.000Z,8.40
2018-08-24T05:17:37.507Z,9.77
2018-08-24T05:20:07.546Z,9.93
2018-08-24T05:22:37.566Z,6.97
2018-08-24T05:25:07.873Z,7.07
2018-08-24T05:27:38.853Z,7.35
2018-08-24T05:30:08.942Z,7.58
2018-08-24T05:32:38.872Z,6.60
2018-08-24T05:35:08.234Z,7.20
2018-08-24T05:37:37.448Z,15.43
2018-08-24T05:40:06.669Z,15.38
2018-08-24T05:42:36.033Z,17.37
2018-08-24T05:45:05.874Z,8.45
2018-08-24T05:47:35.349Z,8.10
2018-08-24T05:50:04.651Z,9.20
2018-08-24T05:52:33.950Z,10.40
2018-08-24T05:55:03.350Z,9.57
2018-08-24T05:57:32.651Z,12.43
2018-08-24T06:00:02.157Z,9.73
2018-08-24T06:02:31.610Z,11.53
2018-08-24T06:05:00.880Z,8.07
2018-08-24T06:07:30.154Z,28.70
2018-08-24T06:09:59.558Z,14.63
2018-08-24T06:12:28.960Z,8.38
2018-08-24T06:14:58.155Z,8.53
2018-08-24T06:17:32.408Z,7.97
2018-08-24T06:20:01.711Z,12.80
2018-08-24T06:22:31.277Z,8.33
2018-08-24T06:25:00.483Z,7.53
2018-08-24T06:27:29.774Z,7.70
2018-08-24T06:29:59.074Z,7.80
2018-08-24T06:32:28.374Z,8.85
2018-08-24T06:34:57.776Z,7.03
2018-08-24T06:37:27.485Z,6.30
2018-08-24T06:39:56.666Z,7.83
2018-08-24T06:42:26.085Z,5.07
2018-08-24T06:44:55.589Z,6.13
2018-08-24T06:47:25.401Z,5.37
2018-08-24T06:49:54.700Z,5.35
2018-08-24T06:52:24.102Z,8.10
2018-08-24T06:54:53.607Z,5.97
2018-08-24T06:57:23.011Z,5.05
2018-08-24T06:59:52.258Z,6.08
2018-08-24T07:02:21.506Z,4.90
2018-08-24T07:04:50.826Z,4.35
2018-08-24T07:07:20.310Z,4.17
2018-08-24T07:09:49.510Z,5.60
2018-08-24T07:12:20.067Z,3.33
2018-08-24T07:14:49.439Z,6.40
2018-08-24T07:17:24.062Z,3.67
2018-08-24T07:19:53.902Z,5.23
2018-08-24T07:22:23.276Z,4.50
2018-08-24T07:24:52.781Z,3.47
2018-08-24T07:27:22.286Z,4.57
2018-08-24T07:29:51.688Z,6.10
2018-08-24T07:32:21.242Z,4.77
2018-08-24T07:34:50.611Z,5.20
2018-08-24T07:37:20.201Z,7.77
2018-08-24T07:39:49.644Z,3.30
2018-08-24T07:42:19.984Z,3.87
2018-08-24T07:44:52.610Z,3.20
2018-08-24T07:47:22.745Z,3.42
2018-08-24T07:49:52.709Z,3.33
2018-08-24T07:52:22.114Z,3.17
2018-08-24T07:54:51.645Z,2.95
2018-08-24T07:57:21.053Z,3.20
2018-08-24T07:59:50.657Z,2.90
2018-08-24T08:02:21.526Z,3.37
2018-08-24T08:04:50.845Z,2.90
2018-08-24T08:07:20.296Z,3.27
2018-08-24T08:09:49.504Z,3.40
2018-08-24T08:12:18.758Z,5.55
2018-08-24T08:14:53.321Z,3.08
2018-08-24T08:17:22.827Z,4.10
2018-08-24T08:19:53.167Z,3.72
2018-08-24T08:22:22.552Z,4.05
2018-08-24T08:24:52.264Z,4.92
2018-08-24T08:27:21.658Z,2.72
2018-08-24T08:29:56.178Z,2.05
2018-08-24T08:32:25.475Z,3.33
2018-08-24T08:34:54.987Z,2.17
2018-08-24T08:37:24.898Z,3.42
2018-08-24T08:39:58.766Z,3.30
2018-08-24T08:42:28.209Z,8.35
2018-08-24T08:44:57.931Z,3.42
2018-08-24T08:47:27.420Z,2.15
2018-08-24T08:49:56.722Z,2.20
2018-08-24T08:52:25.915Z,3.20
2018-08-24T08:54:55.276Z,5.87
2018-08-24T08:57:24.822Z,3.47
2018-08-24T08:59:54.225Z,2.00
2018-08-24T09:02:23.407Z,4.35
2018-08-24T09:04:52.721Z,29.77
2018-08-24T09:07:22.022Z,2.08
2018-08-24T09:09:51.438Z,3.55
2018-08-24T09:12:20.829Z,4.62
2018-08-24T09:14:50.126Z,2.98
2018-08-24T09:17:24.826Z,3.95
2018-08-24T09:19:59.373Z,5.28
2018-08-24T09:22:33.815Z,5.70
2018-08-24T09:25:08.427Z,17.82
2018-08-24T09:28:42.127Z,1.27
2018-08-24T09:31:16.342Z,6.47
2018-08-24T09:33:45.859Z,9.58
2018-08-24T09:36:19.171Z,1.60
2018-08-24T09:38:49.235Z,1.60
2018-08-24T09:41:18.492Z,3.85
2018-08-24T09:43:53.125Z,26.75
2018-08-24T09:46:26.591Z,5.12
2018-08-24T09:49:01.151Z,5.87
2018-08-24T09:51:30.716Z,5.03
2018-08-24T09:54:06.081Z,5.40
2018-08-24T09:56:36.494Z,8.57
2018-08-24T09:59:06.085Z,6.47
2018-08-24T10:01:40.780Z,6.80
2018-08-24T10:04:15.544Z,10.57
2018-08-24T10:06:50.177Z,16.57
2018-08-24T10:09:19.868Z,38.40
2018-08-24T10:11:49.272Z,17.63
2018-08-24T10:14:18.799Z,24.72
2018-08-24T10:16:48.281Z,10.60
2018-08-24T10:19:17.483Z,15.43
2018-08-24T10:21:46.743Z,14.23
2018-08-24T10:24:16.075Z,3.95
2018-08-24T10:26:45.480Z,17.87
2018-08-24T10:29:14.891Z,5.27
2018-08-24T10:31:44.384Z,6.13
2018-08-24T10:34:13.731Z,9.35
2018-08-24T10:36:43.090Z,5.57
2018-08-24T10:39:12.884Z,5.50
2018-08-24T10:41:42.209Z,6.57
2018-08-24T10:44:11.528Z,6.17
2018-08-24T10:46:41.115Z,5.37
2018-08-24T10:49:10.526Z,5.40
2018-08-24T10:51:39.913Z,5.57
2018-08-24T10:54:09.391Z,6.27
2018-08-24T10:56:38.961Z,6.10
2018-08-24T10:59:08.421Z,6.10
2018-08-24T11:01:40.526Z,6.30
2018-08-24T11:04:09.989Z,6.50
2018-08-24T11:06:39.392Z,6.70
2018-08-24T11:09:10.095Z,7.07
2018-08-24T11:11:39.630Z,6.90
2018-08-24T11:14:09.359Z,7.47
2018-08-24T11:16:38.860Z,7.30
2018-08-24T11:19:08.552Z,7.43
2018-08-24T11:21:37.954Z,8.60
2018-08-24T11:24:07.664Z,10.77
2018-08-24T11:26:36.946Z,9.33
2018-08-24T11:29:06.266Z,9.50
2018-08-24T11:31:35.665Z,8.00
2018-08-24T11:34:04.962Z,8.17
2018-08-24T11:36:34.266Z,8.07
2018-08-24T11:39:05.509Z,7.57
2018-08-24T11:41:35.024Z,7.50
2018-08-24T11:44:04.670Z,7.87
2018-08-24T11:46:34.125Z,7.20
2018-08-24T11:49:03.525Z,7.35
2018-08-24T11:51:32.934Z,7.77
2018-08-24T11:54:02.595Z,8.67
2018-08-24T11:56:31.772Z,7.37
2018-08-24T11:59:01.140Z,6.73
2018-08-24T12:01:30.523Z,6.50
2018-08-24T12:03:59.939Z,5.70
2018-08-24T12:06:29.304Z,5.83
2018-08-24T12:08:58.621Z,5.97
2018-08-24T12:11:27.943Z,5.37
2018-08-24T12:13:57.372Z,6.10
2018-08-24T12:16:26.910Z,5.47
2018-08-24T12:18:56.556Z,5.30
2018-08-24T12:21:25.868Z,5.17
2018-08-24T12:23:55.258Z,6.23
2018-08-24T12:26:24.659Z,5.40
2018-08-24T12:28:54.062Z,7.70
2018-08-24T12:31:23.762Z,4.73
2018-08-24T12:33:53.275Z,6.03
2018-08-24T12:36:22.677Z,6.20
2018-08-24T12:38:52.183Z,4.65
2018-08-24T12:41:21.715Z,6.03
2018-08-24T12:43:50.987Z,5.75
2018-08-24T12:46:20.394Z,4.87
2018-08-24T12:48:49.845Z,5.55
2018-08-24T12:51:19.397Z,4.97
2018-08-24T12:53:55.046Z,4.90
2018-08-24T12:56:24.550Z,6.30
2018-08-24T12:58:54.271Z,6.62
2018-08-24T13:01:23.661Z,6.42
2018-08-24T13:03:53.064Z,5.83
2018-08-24T13:06:22.468Z,6.40
2018-08-24T13:08:51.871Z,6.10
2018-08-24T13:11:21.116Z,6.20
2018-08-24T13:13:50.364Z,7.00
2018-08-24T13:16:19.779Z,5.45
2018-08-24T13:18:49.168Z,6.97
2018-08-24T13:21:19.319Z,6.35
2018-08-24T13:23:48.699Z,6.37
2018-08-24T13:26:18.193Z,6.40
2018-08-24T13:28:47.700Z,5.75
2018-08-24T13:31:17.120Z,5.55
2018-08-24T13:33:46.794Z,5.97
2018-08-24T13:36:16.312Z,6.75
2018-08-24T13:38:45.816Z,5.42
2018-08-24T13:41:15.219Z,6.25
2018-08-24T13:43:44.928Z,7.92
2018-08-24T13:46:19.505Z,5.50
2018-08-24T13:48:49.670Z,5.80
2018-08-24T13:51:19.074Z,5.20
2018-08-24T13:53:48.479Z,5.95
2018-08-24T13:56:17.773Z,8.03
2018-08-24T13:58:47.179Z,6.33
2018-08-24T14:01:16.645Z,6.60
2018-08-24T14:03:45.945Z,5.97
2018-08-24T14:06:15.281Z,6.78
2018-08-24T14:08:44.786Z,6.40
2018-08-24T14:11:14.189Z,5.67
2018-08-24T14:13:43.587Z,5.85
2018-08-24T14:16:12.994Z,6.22
2018-08-24T14:18:42.289Z,5.83
2018-08-24T14:21:12.103Z,5.60
2018-08-24T14:23:41.308Z,6.05
2018-08-24T14:26:10.701Z,5.60
2018-08-24T14:28:41.075Z,7.80
2018-08-24T14:31:10.634Z,6.30
2018-08-24T14:33:40.040Z,8.60
2018-08-24T14:36:09.562Z,7.03
2018-08-24T14:38:39.249Z,7.90
2018-08-24T14:41:08.655Z,9.60
2018-08-24T14:43:38.052Z,8.68
2018-08-24T14:46:07.864Z,9.38
2018-08-24T14:48:37.140Z,8.58
2018-08-24T14:51:06.564Z,7.10
2018-08-24T14:53:35.968Z,7.28
2018-08-24T14:56:05.370Z,8.00
2018-08-24T14:58:34.771Z,7.30
2018-08-24T15:01:04.175Z,7.80
2018-08-24T15:03:33.575Z,7.40
2018-08-24T15:06:02.977Z,7.08
2018-08-24T15:08:32.382Z,6.33
2018-08-24T15:11:01.783Z,7.60
2018-08-24T15:13:31.183Z,5.60
2018-08-24T15:16:00.394Z,5.28
2018-08-24T15:18:29.886Z,7.62
2018-08-24T15:20:59.287Z,6.60
2018-08-24T15:23:28.791Z,6.67
2018-08-24T15:25:58.057Z,6.00
2018-08-24T15:28:27.390Z,6.15
2018-08-24T15:30:56.792Z,5.00
2018-08-24T15:33:26.094Z,6.42
2018-08-24T15:35:55.497Z,6.62
2018-08-24T15:38:24.898Z,6.67
2018-08-24T15:40:54.202Z,4.85
2018-08-24T15:43:23.700Z,6.35
2018-08-24T15:45:53.205Z,6.65
2018-08-24T15:48:22.609Z,7.75
2018-08-24T15:50:52.007Z,6.70
2018-08-24T15:53:21.411Z,5.72
2018-08-24T15:55:50.812Z,5.78
2018-08-24T15:58:20.214Z,5.87
2018-08-24T16:00:49.719Z,5.10
2018-08-24T16:03:18.936Z,6.55
2018-08-24T16:05:48.275Z,5.50
2018-08-24T16:08:17.822Z,6.15
2018-08-24T16:10:47.634Z,6.65
2018-08-24T16:13:17.139Z,8.15
2018-08-24T16:15:46.541Z,6.47
2018-08-24T16:18:21.166Z,6.15
2018-08-24T16:20:50.697Z,7.37
2018-08-24T16:23:20.007Z,7.30
2018-08-24T16:25:49.810Z,7.20
2018-08-24T16:28:19.958Z,6.75
2018-08-24T16:30:49.218Z,4.93
2018-08-24T16:33:19.014Z,5.67
2018-08-24T16:35:48.211Z,5.08
2018-08-24T16:38:18.019Z,4.83
2018-08-24T16:40:47.238Z,4.75
2018-08-24T16:43:16.524Z,5.72
2018-08-24T16:45:45.723Z,5.65
2018-08-24T16:48:14.931Z,4.10
2018-08-24T16:50:44.313Z,7.20
2018-08-24T16:53:13.616Z,4.28
2018-08-24T16:55:42.913Z,7.67
2018-08-24T16:58:12.290Z,4.55
2018-08-24T17:00:41.717Z,4.10
2018-08-24T17:03:11.182Z,6.22
2018-08-24T17:05:40.624Z,8.40
2018-08-24T17:08:09.922Z,5.05
2018-08-24T17:10:39.324Z,6.43
2018-08-24T17:13:08.727Z,6.37
2018-08-24T17:15:38.288Z,4.53
2018-08-24T17:18:08.043Z,5.73
2018-08-24T17:20:37.751Z,6.27
2018-08-24T17:23:07.159Z,5.80
2018-08-24T17:25:36.564Z,5.83
2018-08-24T17:28:05.956Z,4.77
2018-08-24T17:30:35.258Z,6.00
2018-08-24T17:33:04.762Z,7.97
2018-08-24T17:35:34.178Z,4.30
2018-08-24T17:38:03.670Z,5.90
2018-08-24T17:40:33.172Z,4.77
2018-08-24T17:43:02.576Z,6.00
2018-08-24T17:45:31.978Z,8.00
2018-08-24T17:48:01.420Z,4.83
2018-08-24T17:50:30.944Z,3.97
2018-08-24T17:53:00.284Z,7.87
2018-08-24T17:55:29.689Z,4.60
2018-08-24T17:57:59.090Z,5.33
2018-08-24T18:00:28.492Z,5.07
2018-08-24T18:02:57.999Z,7.10
2018-08-24T18:05:27.402Z,4.47
2018-08-24T18:07:56.905Z,4.77
2018-08-24T18:10:26.220Z,7.37
2018-08-24T18:12:55.605Z,5.00
2018-08-24T18:15:25.064Z,6.20
2018-08-24T18:17:54.577Z,5.37
2018-08-24T18:20:23.914Z,5.53
2018-08-24T18:22:53.314Z,6.53
2018-08-24T18:25:22.829Z,2.87
2018-08-24T18:27:52.225Z,6.87
2018-08-24T18:30:21.583Z,3.90
2018-08-24T18:32:51.026Z,4.10
2018-08-24T18:35:20.430Z,4.20
2018-08-24T18:37:49.931Z,5.90
2018-08-24T18:40:19.436Z,3.40
2018-08-24T18:42:48.915Z,3.47
2018-08-24T18:45:19.305Z,2.47
2018-08-24T18:47:55.321Z,3.83
2018-08-24T18:50:24.725Z,4.40
2018-08-24T18:52:54.128Z,5.50
2018-08-24T18:55:23.807Z,5.57
2018-08-24T18:57:53.713Z,3.37
2018-08-24T19:00:23.183Z,4.57
2018-08-24T19:02:52.664Z,3.03
2018-08-24T19:05:22.084Z,5.47
2018-08-24T19:07:55.585Z,4.17
2018-08-24T19:10:25.064Z,4.77
2018-08-24T19:12:54.463Z,2.80
2018-08-24T19:15:23.804Z,3.13
2018-08-24T19:17:59.002Z,4.50
2018-08-24T19:20:33.530Z,2.80
2018-08-24T19:23:03.233Z,3.23
2018-08-24T19:25:32.776Z,4.33
2018-08-24T19:28:07.540Z,3.33
2018-08-24T19:30:36.968Z,4.60
2018-08-24T19:33:06.575Z,5.47
2018-08-24T19:35:35.977Z,3.10
2018-08-24T19:38:05.584Z,5.40
2018-08-24T19:40:40.566Z,4.27
2018-08-24T19:43:10.257Z,4.73
2018-08-24T19:45:39.628Z,4.00
2018-08-24T19:48:14.181Z,5.13
2018-08-24T19:50:43.657Z,4.70
2018-08-24T19:53:12.896Z,5.47
2018-08-24T19:55:42.253Z,4.30
2018-08-24T19:58:16.776Z,3.87
2018-08-24T20:00:46.226Z,2.07
2018-08-24T20:03:15.884Z,2.83
2018-08-24T20:05:50.618Z,4.03
2018-08-24T20:08:25.635Z,4.77
2018-08-24T20:10:55.111Z,3.73
2018-08-24T20:13:24.553Z,3.60
2018-08-24T20:15:59.278Z,2.97
2018-08-24T20:18:28.749Z,3.33
2018-08-24T20:20:58.185Z,3.50
2018-08-24T20:23:27.689Z,2.50
2018-08-24T20:25:57.195Z,3.17
2018-08-24T20:28:26.600Z,5.53
2018-08-24T20:30:56.679Z,2.90
2018-08-24T20:33:26.208Z,3.40
2018-08-24T20:35:55.500Z,6.17
2018-08-24T20:38:25.026Z,4.80
2018-08-24T20:40:54.424Z,2.90
2018-08-24T20:43:23.832Z,5.07
2018-08-24T20:45:53.134Z,4.80
2018-08-24T20:48:22.530Z,3.63
2018-08-24T20:50:52.033Z,3.77
2018-08-24T20:53:21.436Z,4.07
2018-08-24T20:55:50.841Z,5.73
2018-08-24T20:58:20.343Z,5.67
2018-08-24T21:00:50.194Z,2.53
2018-08-24T21:03:20.112Z,3.77
2018-08-24T21:05:49.917Z,3.07
2018-08-24T21:08:19.400Z,3.97
2018-08-24T21:10:49.156Z,3.57
2018-08-24T21:13:18.897Z,5.00
2018-08-24T21:15:48.561Z,2.50
2018-08-24T21:18:18.837Z,5.00
2018-08-24T21:20:48.452Z,3.10
2018-08-24T21:23:18.036Z,3.30
2018-08-24T21:25:47.665Z,7.97
2018-08-24T21:28:17.262Z,3.40
2018-08-24T21:30:46.837Z,2.87
2018-08-24T21:33:16.482Z,3.87
2018-08-24T21:35:46.190Z,3.07
2018-08-24T21:38:15.933Z,3.87
2018-08-24T21:40:45.516Z,3.00
2018-08-24T21:43:15.415Z,3.10
2018-08-24T21:45:45.351Z,4.13
2018-08-24T21:48:14.987Z,3.90
2018-08-24T21:50:44.537Z,1.97
2018-08-24T21:53:14.252Z,2.57
2018-08-24T21:55:43.763Z,2.30
2018-08-24T21:58:13.269Z,2.90
2018-08-24T22:00:43.231Z,3.10
2018-08-24T22:03:13.895Z,2.80
2018-08-24T22:05:43.412Z,4.60
2018-08-24T22:08:13.018Z,4.57
2018-08-24T22:10:42.326Z,4.67
2018-08-24T22:13:11.787Z,3.57
2018-08-24T22:15:41.277Z,5.87
2018-08-24T22:18:10.831Z,3.37
2018-08-24T22:20:40.540Z,3.47
2018-08-24T22:23:09.840Z,3.40
2018-08-24T22:25:39.240Z,3.17
2018-08-24T22:28:08.525Z,5.33
2018-08-24T22:30:37.790Z,3.03
2018-08-24T22:33:07.477Z,3.23
2018-08-24T22:35:37.007Z,3.13
2018-08-24T22:38:06.879Z,4.63
2018-08-24T22:40:37.192Z,3.37
2018-08-24T22:43:10.892Z,3.50
2018-08-24T22:45:40.347Z,3.43
2018-08-24T22:48:09.867Z,4.13
2018-08-24T22:50:39.510Z,4.03
2018-08-24T22:53:08.931Z,3.67
2018-08-24T22:55:38.414Z,3.37
2018-08-24T22:58:07.818Z,3.67
2018-08-24T23:00:37.274Z,4.03
2018-08-24T23:03:06.831Z,2.80
2018-08-24T23:05:38.486Z,4.37
2018-08-24T23:08:09.110Z,2.57
2018-08-24T23:10:38.514Z,3.03
2018-08-24T23:13:08.124Z,3.83
2018-08-24T23:15:37.467Z,3.73
2018-08-24T23:18:07.334Z,4.30
2018-08-24T23:20:36.900Z,2.67
2018-08-24T23:23:06.545Z,2.57
2018-08-24T23:25:36.055Z,3.20
2018-08-24T23:28:08.524Z,4.40
2018-08-24T23:30:37.989Z,7.23
2018-08-24T23:33:07.533Z,5.47
2018-08-24T23:35:36.998Z,3.67
2018-08-24T23:38:06.543Z,5.10
2018-08-24T23:40:36.047Z,4.73
2018-08-24T23:43:05.651Z,3.97
2018-08-24T23:45:35.075Z,6.27
2018-08-24T23:48:04.515Z,4.50
2018-08-24T23:50:33.859Z,4.47
2018-08-24T23:53:03.215Z,4.33
2018-08-24T23:55:32.460Z,5.33
2018-08-24T23:58:01.962Z,3.97
